Aviation Digital Data Service (ADDS)

Output produced by METARs form (0652 UTC 24 March 2019)
found at http://www.aviationweather.gov/metar/data/
 
KAAT 240555Z AUTO 26006KT 10SM FEW017 BKN028 OVC038 02/01 A3015 RMK AO2 SLP222 60000 T00170006 10033 20017 51008
KACV 240553Z AUTO 10003KT 7SM CLR 06/05 A3024 RMK AO2 SLP248 T00610050 10122 20056 51006
KACV 240522Z 2406/2506 00000KT 6SM BR FEW010 
     FM241000 10003KT 4SM BR SCT005 SCT250 
     FM241900 23008G18KT P6SM FEW040 BKN250 
     FM250200 13008KT P6SM VCSH OVC080
       
KAUN 240635Z AUTO 09008KT 10SM SCT070 06/04 A3021 RMK A01
KAVX 240551Z AUTO 25005KT 1/4SM FG VV001 11/11 A3015 RMK AO2 SLP209 T01060106 10133 20100 51001 $
KBFL 240554Z 13003KT 10SM BKN042 12/09 A3018 RMK AO2 SLP218 T01170089 10161 20117 50006
KBFL 240525Z 2406/2506 34005KT P6SM SCT040 SCT100 
     FM240900 34005KT P6SM SCT250
       
KL35 240635Z AUTO 25006KT 10SM CLR 00/M02 A3012 RMK AO2
KBIH 240520Z 2406/2506 34008KT P6SM SKC 
     FM242000 17008KT P6SM SCT200
       
KBLH 240552Z AUTO 13006KT 10SM CLR 19/05 A2998 RMK AO2 SLP148 T01940050 10278 20194 51009
KBLH 240520Z 2406/2506 28010KT P6SM BKN250 
     FM240700 VRB05KT P6SM SCT250
       
KL08 240635Z AUTO VRB03KT 10SM SCT060 17/05 A3004 RMK AO2
KBUR 240553Z AUTO 00000KT 10SM CLR 13/11 A3012 RMK AO2 SLP194 T01280106 10161 20128 58002
KBUR 240535Z 2406/2506 VRB03KT P6SM FEW015 
     FM240800 VRB03KT P6SM BKN025 
     FM241600 VRB03KT P6SM SCT025 
     FM242000 19008KT P6SM SKC 
     FM250300 VRB03KT P6SM SKC
       
KC83 240640Z AUTO 23008KT 10SM CLR 10/07 A3024 RMK AO2
KCMA 240555Z AUTO 09003KT 9SM SCT013 14/10 A3012 RMK AO2 SLP209 T01390100 10178 20133 58000
KCMA 240535Z 2406/2506 06005KT P6SM BKN015 
     FM241100 05006KT P6SM SKC 
     FM242000 23008KT P6SM SKC 
     FM250200 VRB03KT P6SM SKC
       
KCRQ 240553Z AUTO 22003KT 10SM FEW022 FEW032 14/12 A3015 RMK AO2 SLP206 T01440122 10167 20144 50002
KCRQ 240605Z 2406/2506 VRB04KT P6SM SCT020 
     FM240700 VRB04KT P6SM BKN015 
     FM241600 24004KT P6SM SCT018 
     FM241900 26008KT P6SM FEW022 
     FM250200 VRB04KT P6SM FEW018
       
KCIC 240635Z AUTO 00000KT 10SM CLR 07/04 A3025 RMK AO1
KCNO 240553Z AUTO 26007KT 10SM OVC028 12/11 A3015 RMK AO2 SLP208 T01220106 10167 20117 50006
KO22 240635Z AUTO 00000KT 10SM CLR 04/04 A3021 RMK A01
KCCR 240553Z 24004KT 10SM CLR 11/06 A3024 RMK AO2 SLP226 T01060061 10167 20100 51013
KAJO 240556Z AUTO 26005KT 10SM BKN032 13/11 A3014 RMK AO2 SLP220 6//// T01330106 10183 20128 51007
KCEC 240556Z AUTO 10004KT 10SM CLR 07/06 A3025 RMK AO2 SLP243 T00670056 10122 20061 50005
KCEC 240522Z 2406/2506 00000KT 6SM BR SCT009 
     FM241000 13004KT P6SM BKN250 
     FM241800 16008G16KT P6SM BKN250 
     FM250300 18006KT P6SM VCSH OVC120
       
KDAG 240550Z AUTO 25020G30KT 10SM CLR 12/04 A3006 RMK AO2 PK WND 25033/0538 SLP165 T01220039 10200 20122 51002
KDAG 240520Z 2406/2506 25018G28KT P6SM SKC 
     FM241300 27011KT P6SM SKC 
     FM241900 04006KT P6SM SKC 
     FM250200 VRB05KT P6SM SCT250
       
KEDU 240635Z AUTO 31003KT 10SM CLR 09/07 A3023 RMK AO1
KDLO 240635Z AUTO 22003KT 10SM CLR 08/06 A3019 RMK AO2 T00810063
KEMT 240145Z 23007KT 10SM BKN060 17/11 A3012
KBLU 240552Z AUTO 00000KT 10SM CLR M01/M03 A3019 RMK AO2 SLP239 60010 I1000 I6000 T10111028 10017 21011 51007 TSNO
KFOT 240635Z AUTO 11007KT 10SM CLR 03/03 A3023 RMK AO1
KFCH 240635Z AUTO 33005KT 10SM CLR 10/08 A3020 RMK A01
KFAT 240553Z 31006KT 10SM CLR 12/07 A3019 RMK AO2 SLP222 T01170067 10178 20117 51009
KFAT 240525Z 2406/2506 33004KT P6SM SCT250
       
KFUL 240553Z AUTO 00000KT 10SM OVC020 15/11 A3014 RMK AO2 SLP204 T01500106 10200 20144 50005
KGOO 240640Z AUTO 10006KT 10SM CLR 04/01 A3020 RMK AO1
KHAF 240640Z AUTO 06003KT 8SM FEW004 07/06 A3025 RMK AO2
KHJO 240553Z AUTO 31006KT 9SM CLR 11/07 A3019 RMK AO2 SLP227 T01110067 10189 20106 51009
KHHR 240553Z AUTO 24003KT 10SM CLR 15/11 A3014 RMK AO2 SLP206 T01500111 10178 20150 51002
KHWD 240554Z AUTO 00000KT 10SM CLR 19/07 A3024 RMK AO2 SLP248 T01890067 10200 20183 51007
KCVH 240640Z AUTO 00000KT 10SM CLR 07/06 A3025 RMK A01
KIPL 240553Z AUTO 26013G19KT 10SM CLR 18/04 A3002 RMK AO2 SLP164 T01780039 10283 20172 51010
KIPL 240520Z 2406/2506 30010KT P6SM BKN250 
     FM241300 VRB05KT P6SM FEW250
       
KJAQ 240635Z AUTO 08003KT 10SM CLR 06/05 A3021 RMK AO1 T00600052
KWJF 240556Z AUTO 26017KT 10SM CLR 09/04 A3012 RMK AO2 SLP198 T00890044 10139 20089 58001
KWJF 240535Z 2406/2506 26015KT P6SM SCT050 
     FM241300 VRB03KT P6SM SKC 
     FM250000 25007KT P6SM SKC
       
KPOC 240347Z 23008KT 10SM SCT015 SCT024 OVC036 13/10 A3015 RMK LAST
KLHM 240635Z AUTO 32004KT 10SM CLR 07/06 A3022 RMK AO1
KLVK 240553Z AUTO 00000KT 10SM CLR 08/06 A3023 RMK AO2 SLP236 T00830056 10144 20083 51010
KLVK 240524Z 2406/2506 16004KT P6SM SKC 
     FM241600 07005KT P6SM SCT150 BKN250 
     FM242100 VRB04KT P6SM SCT150 OVC200 
     FM250300 15004KT P6SM SCT100 BKN120 OVC200
       
KLGB 240553Z COR 00000KT 10SM BKN16 15/12 A3014 RMK AO2 SLP207 T01500117 10189 20144 51004
KLGB 240535Z 2406/2506 VRB03KT P6SM SCT015 
     FM240700 VRB03KT P6SM BKN015 
     FM241700 VRB03KT P6SM FEW020 
     FM242000 19007KT P6SM SKC 
     FM250000 29008KT P6SM SKC 
     FM250400 VRB03KT P6SM SKC
       
KWHP 240300Z 00000KT 10SM OVC028 14/10 A3015
KLAX 240553Z 25007KT 10SM FEW011 SCT040 14/12 A3014 RMK AO2 SLP204 T01440117 10172 20139 51001
KLAX 240535Z 2406/2512 26006KT P6SM FEW015 
     FM240900 VRB03KT P6SM BKN015 
     FM241700 25006KT P6SM FEW020 
     FM242000 26012KT P6SM SKC 
     FM250300 26006KT P6SM SKC 
     FM250800 VRB03KT P6SM SKC
       
KMAE 240553Z AUTO 33008KT 10SM CLR 11/07 A3020 RMK AO2 SLP227 T01110067 10189 20106 51012
KMMH 240635Z AUTO 27008KT 10SM CLR M03/M11 A3013 RMK AO2 T10321106
KMMH 240542Z 2406/2506 28006KT P6SM SCT040 BKN160 
     FM241500 VRB04KT P6SM BKN150 
     FM242200 20010KT P6SM BKN140 
     FM250300 VRB04KT P6SM SCT120 BKN140
       
KMYV 240553Z AUTO 03003KT 10SM CLR 09/07 A3023 RMK AO2 SLP238 60021 T00890067 10122 20083 51015
KMER 240635Z AUTO 35006KT 10SM CLR 09/09 A3021 RMK AO1
KMER 240525Z 2406/2506 36003KT P6SM SCT250
       
KMCE 240553Z AUTO 34009KT 10SM CLR 11/07 A3020 RMK AO2 SLP226 T01060072 10178 20106 50012
KMCE 240525Z 2406/2506 35004KT P6SM SCT250
       
KMOD 240553Z AUTO 33005KT 10SM CLR 10/06 A3021 RMK AO2 SLP231 T01000056 10183 20100 51011
KMOD 240534Z 2406/2506 31006KT P6SM SKC 
     FM241900 VRB03KT P6SM BKN250 
     FM242300 VRB03KT P6SM OVC150
       
KMHV 240620Z AUTO 29013G32KT 10SM SCT023 BKN036 OVC060 10/02 A3008 RMK A01
KSIY 240553Z AUTO 17003KT 10SM SCT038 BKN065 02/01 A3022 RMK AO2 SLP250 60006 T00170006 10078 20017 51007
KMRY 240554Z AUTO 16005KT 10SM CLR 10/06 A3023 RMK AO2 SLP248 T01000056 10144 20100 58000
KMRY 240524Z 2406/2506 11004KT P6SM FEW025 
     FM241500 12005KT P6SM FEW025 SCT150 BKN250 
     FM241900 28008KT P6SM SCT150 OVC250 
     FM250300 12004KT P6SM SCT015 BKN120 OVC200
       
KF70 240635Z AUTO 00000KT 10SM CLR 10/09 A3015 RMK AO1
KAPC 240554Z AUTO 23004KT 10SM CLR 09/07 A3023 RMK AO2 SLP228 T00890067 10150 20089 51013
KEED 240556Z AUTO 35005KT 10SM CLR 19/04 A2997 RMK AO2 SLP127 T01890044 10261 20189 53010
KEED 240520Z 2406/2506 27009KT P6SM SCT250 
     FM241200 VRB06KT P6SM SKC 
     FM250200 27007KT P6SM FEW250
       
KDVO 240635Z AUTO 00000KT 10SM CLR 09/08 A3024 RMK AO2
KOAK 240553Z 28010KT 10SM FEW020 12/09 A3025 RMK AO2 SLP242 T01170089 10156 20117 53011 $
KOAK 240524Z 2406/2512 29008KT P6SM FEW015 
     FM240800 08004KT P6SM FEW007 
     TEMPO 2410/2414 P6SM SCT007 
     FM241400 06004KT P6SM FEW011 SCT120 BKN250 
     FM242000 27010KT P6SM SCT120 OVC200 
     FM250300 34008KT P6SM FEW012 BKN100 OVC120 
     FM250500 14004KT P6SM FEW015 BKN080 OVC120 
     FM250700 14003KT P6SM -RA SCT015 OVC080
       
KL52 240635Z AUTO 07004KT 9SM CLR 09/08 A3019 RMK A01
KONT 240553Z 23007KT 10SM FEW013 SCT020 BKN037 14/11 A3013 RMK AO2 SLP200 T01440111 10189 20144 51007
KONT 240607Z 2406/2512 VRB04KT P6SM SCT020 BKN035 
     FM240800 VRB04KT P6SM BKN020 
     FM241600 VRB04KT P6SM SCT030 
     FM241900 24009KT P6SM SKC 
     FM250400 VRB04KT P6SM SKC
       
KOVE 240553Z AUTO 10SM CLR 08/05 A3023 RMK AO2 SLP239 60000 T00780050 10122 20078 52013 $
KOXR 240551Z AUTO 08005KT 9SM CLR 12/11 A3013 RMK AO2 SLP201 T01220106 10150 20122 50001
KOXR 240535Z 2406/2506 06005KT P6SM SCT015 
     FM240700 06005KT P6SM BKN015 
     FM241100 06006KT P6SM SKC 
     FM242000 26010KT P6SM SKC 
     FM250200 VRB03KT P6SM SKC
       
KPMD 240553Z AUTO 26012KT 10SM CLR 09/03 A3013 RMK AO2 SLP195 T00890028 10133 20089 50002
KPMD 240535Z 2406/2506 25010KT P6SM SCT050 
     FM241300 VRB03KT P6SM SKC 
     FM250000 25007KT P6SM SKC
       
KTRM 240552Z AUTO 33015G22KT 10SM CLR 20/06 A2999 RMK AO2 PK WND 33027/0534 SLP158 T02000061 10261 20200 51010 $
KTRM 240539Z 2406/2506 33010KT P6SM SKC 
     TEMPO 2406/2408 33012G22KT 
     FM241200 32006KT P6SM SKC
       
KPSP 240553Z 24003KT 10SM CLR 17/05 A3003 RMK AO2 SLP167 T01670050 10244 20167 51008
KPSP 240539Z 2406/2506 31010KT P6SM SKC 
     FM241000 31005KT P6SM SKC 
     FM250000 32009KT P6SM SKC
       
KPAO 240347Z 27006KT 10SM SKC 11/07 A3024 RMK LAST
KPRB 240553Z AUTO 31009KT 10SM CLR 09/06 A3020 RMK AO2 SLP226 T00890061 10161 20089 51010 $
KPRB 240535Z 2406/2506 31010KT P6SM SKC 
     FM241200 VRB03KT 1/2SM FG VV001 
     FM241600 VRB03KT 2SM BR BKN005 
     FM241700 31006KT P6SM SKC 
     FM242100 VRB03KT P6SM SKC 
     FM250200 12006KT P6SM SKC
       
KO69 240635Z AUTO 00000KT 10SM OVC019 07/07 A3024 RMK A01
KPVF 240635Z AUTO 09007KT 10SM OVC050 05/03 A3022 RMK AO1
KPTV 240556Z AUTO 15003KT 9SM CLR 08/08 A3019 RMK AO2 SLP238 T00830078 10172 20078 51007
KRNM 240615Z AUTO 00000KT 8SM BKN018 08/07 A3015 RMK AO2 T00780072
KRBL 240554Z AUTO 00000KT 10SM BKN060 08/06 A3023 RMK AO2 SLP236 T00830061 10156 20078 52015
KRBL 240534Z 2406/2506 32004KT P6SM SCT050 
     FM241900 14005KT P6SM OVC200 
     FM250000 14008KT P6SM OVC150
       
KRDD 240553Z AUTO 03004KT 10SM FEW046 BKN070 OVC085 10/07 A3021 RMK AO2 SLP230 T01000067 10133 20100 51014 $
KRDD 240534Z 2406/2506 VRB04KT P6SM VCSH OVC045 
     FM240700 31004KT P6SM BKN050 
     FM241800 VRB04KT P6SM SCT025 OVC250 
     FM250100 13007KT P6SM OVC150
       
KO32 240635Z AUTO 00000KT 10SM SCT055 BKN070 09/09 A3019 RMK AO2